sensor_id;sensor_type;location;lat;lon;timestamp;pressure;altitude;pressure_sealevel;temperature;humidity
62712;BME280;48772;55.586;37.730;2023-12-20T00:00:02;97611.91;;;3.87;100.00
62712;BME280;48772;55.586;37.730;2023-12-20T00:02:31;97605.22;;;3.83;100.00
62712;BME280;48772;55.586;37.730;2023-12-20T00:04:57;97625.25;;;3.95;100.00
62712;BME280;48772;55.586;37.730;2023-12-20T00:07:23;97634.13;;;3.94;100.00
62712;BME280;48772;55.586;37.730;2023-12-20T00:09:49;97592.94;;;3.73;100.00
62712;BME280;48772;55.586;37.730;2023-12-20T00:12:14;97631.88;;;3.90;100.00
62712;BME280;48772;55.586;37.730;2023-12-20T00:14:40;97607.41;;;3.78;100.00
62712;BME280;48772;55.586;37.730;2023-12-20T00:17:06;97583.47;;;3.61;100.00
62712;BME280;48772;55.586;37.730;2023-12-20T00:19:33;97629.38;;;3.88;100.00
62712;BME280;48772;55.586;37.730;2023-12-20T00:21:59;97633.00;;;3.87;100.00
62712;BME280;48772;55.586;37.730;2023-12-20T00:24:25;97628.53;;;3.88;100.00
62712;BME280;48772;55.586;37.730;2023-12-20T00:26:51;97632.28;;;3.85;100.00
62712;BME280;48772;55.586;37.730;2023-12-20T00:29:17;97616.66;;;3.73;100.00
62712;BME280;48772;55.586;37.730;2023-12-20T00:31:42;97607.09;;;3.72;100.00
62712;BME280;48772;55.586;37.730;2023-12-20T00:34:08;97628.53;;;3.88;100.00
62712;BME280;48772;55.586;37.730;2023-12-20T00:36:34;97632.72;;;3.90;100.00
62712;BME280;48772;55.586;37.730;2023-12-20T00:39:00;97630.72;;;3.83;100.00
62712;BME280;48772;55.586;37.730;2023-12-20T00:41:26;97614.63;;;3.76;100.00
62712;BME280;48772;55.586;37.730;2023-12-20T00:43:52;97637.53;;;3.85;100.00
62712;BME280;48772;55.586;37.730;2023-12-20T00:46:17;97624.31;;;3.76;100.00
62712;BME280;48772;55.586;37.730;2023-12-20T00:48:43;97619.16;;;3.74;100.00
62712;BME280;48772;55.586;37.730;2023-12-20T00:51:11;97629.63;;;3.85;100.00
62712;BME280;48772;55.586;37.730;2023-12-20T00:53:37;97629.75;;;3.84;100.00
62712;BME280;48772;55.586;37.730;2023-12-20T00:56:03;97596.38;;;3.64;100.00
62712;BME280;48772;55.586;37.730;2023-12-20T00:58:29;97600.94;;;3.62;100.00
62712;BME280;48772;55.586;37.730;2023-12-20T01:00:55;97637.66;;;3.84;100.00
62712;BME280;48772;55.586;37.730;2023-12-20T01:03:21;97611.25;;;3.74;100.00
62712;BME280;48772;55.586;37.730;2023-12-20T01:05:47;97583.72;;;3.58;100.00
62712;BME280;48772;55.586;37.730;2023-12-20T01:08:12;97583.97;;;3.54;100.00
62712;BME280;48772;55.586;37.730;2023-12-20T01:10:38;97605.16;;;3.74;100.00
62712;BME280;48772;55.586;37.730;2023-12-20T01:13:04;97608.50;;;3.76;100.00
62712;BME280;48772;55.586;37.730;2023-12-20T01:15:30;97583.97;;;3.54;100.00
62712;BME280;48772;55.586;37.730;2023-12-20T01:17:56;97604.53;;;3.61;100.00
62712;BME280;48772;55.586;37.730;2023-12-20T01:20:24;97581.50;;;3.63;100.00
62712;BME280;48772;55.586;37.730;2023-12-20T01:22:49;97594.31;;;3.67;100.00
62712;BME280;48772;55.586;37.730;2023-12-20T01:25:15;97592.50;;;3.68;100.00
62712;BME280;48772;55.586;37.730;2023-12-20T01:27:41;97589.63;;;3.71;100.00
62712;BME280;48772;55.586;37.730;2023-12-20T01:30:07;97564.13;;;3.50;100.00
62712;BME280;48772;55.586;37.730;2023-12-20T01:32:33;97565.66;;;3.53;100.00
62712;BME280;48772;55.586;37.730;2023-12-20T01:34:59;97598.47;;;3.70;100.00
62712;BME280;48772;55.586;37.730;2023-12-20T01:37:25;97609.00;;;3.70;100.00
62712;BME280;48772;55.586;37.730;2023-12-20T01:39:52;97601.09;;;3.70;100.00
62712;BME280;48772;55.586;37.730;2023-12-20T01:42:18;97610.84;;;3.69;100.00
62712;BME280;48772;55.586;37.730;2023-12-20T01:44:44;97577.28;;;3.50;100.00
62712;BME280;48772;55.586;37.730;2023-12-20T01:47:10;97564.84;;;3.53;100.00
62712;BME280;48772;55.586;37.730;2023-12-20T01:49:36;97603.06;;;3.68;100.00
62712;BME280;48772;55.586;37.730;2023-12-20T01:52:02;97567.91;;;3.58;100.00
62712;BME280;48772;55.586;37.730;2023-12-20T01:54:28;97568.50;;;3.61;100.00
62712;BME280;48772;55.586;37.730;2023-12-20T01:56:55;97556.25;;;3.60;100.00
62712;BME280;48772;55.586;37.730;2023-12-20T01:59:21;97569.19;;;3.63;100.00
62712;BME280;48772;55.586;37.730;2023-12-20T02:01:47;97563.06;;;3.63;100.00
62712;BME280;48772;55.586;37.730;2023-12-20T02:04:13;97557.13;;;3.61;100.00
62712;BME280;48772;55.586;37.730;2023-12-20T02:06:40;97548.19;;;3.52;100.00
62712;BME280;48772;55.586;37.730;2023-12-20T02:09:06;97555.25;;;3.51;100.00
62712;BME280;48772;55.586;37.730;2023-12-20T02:11:33;97578.44;;;3.58;100.00
62712;BME280;48772;55.586;37.730;2023-12-20T02:14:01;97555.59;;;3.37;100.00
62712;BME280;48772;55.586;37.730;2023-12-20T02:16:27;97570.78;;;3.54;100.00
62712;BME280;48772;55.586;37.730;2023-12-20T02:18:53;97541.97;;;3.32;100.00
62712;BME280;48772;55.586;37.730;2023-12-20T02:21:25;97564.50;;;3.46;100.00
62712;BME280;48772;55.586;37.730;2023-12-20T02:23:51;97563.44;;;3.48;100.00
62712;BME280;48772;55.586;37.730;2023-12-20T02:26:16;97550.66;;;3.44;100.00
62712;BME280;48772;55.586;37.730;2023-12-20T02:28:44;97541.97;;;3.32;100.00
62712;BME280;48772;55.586;37.730;2023-12-20T02:31:10;97548.84;;;3.24;100.00
62712;BME280;48772;55.586;37.730;2023-12-20T02:33:36;97540.94;;;3.24;100.00
62712;BME280;48772;55.586;37.730;2023-12-20T02:36:02;97531.75;;;3.18;100.00
62712;BME280;48772;55.586;37.730;2023-12-20T02:38:27;97554.88;;;3.35;100.00
62712;BME280;48772;55.586;37.730;2023-12-20T02:40:53;97564.56;;;3.35;100.00
62712;BME280;48772;55.586;37.730;2023-12-20T02:43:19;97512.34;;;3.10;100.00
62712;BME280;48772;55.586;37.730;2023-12-20T02:45:45;97546.09;;;3.25;100.00
62712;BME280;48772;55.586;37.730;2023-12-20T02:48:11;97537.69;;;3.11;100.00
62712;BME280;48772;55.586;37.730;2023-12-20T02:50:37;97552.91;;;3.28;100.00
62712;BME280;48772;55.586;37.730;2023-12-20T02:53:03;97572.75;;;3.32;100.00
62712;BME280;48772;55.586;37.730;2023-12-20T02:55:29;97559.47;;;3.33;100.00
62712;BME280;48772;55.586;37.730;2023-12-20T02:57:55;97559.47;;;3.33;100.00
62712;BME280;48772;55.586;37.730;2023-12-20T03:00:21;97543.88;;;3.21;100.00
62712;BME280;48772;55.586;37.730;2023-12-20T03:02:46;97562.09;;;3.33;100.00
62712;BME280;48772;55.586;37.730;2023-12-20T03:05:12;97562.78;;;3.35;100.00
62712;BME280;48772;55.586;37.730;2023-12-20T03:07:38;97564.19;;;3.39;100.00
62712;BME280;48772;55.586;37.730;2023-12-20T03:10:05;97535.84;;;3.22;100.00
62712;BME280;48772;55.586;37.730;2023-12-20T03:12:33;97548.38;;;3.39;100.00
62712;BME280;48772;55.586;37.730;2023-12-20T03:14:59;97552.06;;;3.27;100.00
62712;BME280;48772;55.586;37.730;2023-12-20T03:17:25;97565.28;;;3.37;100.00
62712;BME280;48772;55.586;37.730;2023-12-20T03:19:50;97545.59;;;3.31;100.00
62712;BME280;48772;55.586;37.730;2023-12-20T03:22:16;97567.56;;;3.41;100.00
62712;BME280;48772;55.586;37.730;2023-12-20T03:24:42;97576.47;;;3.50;100.00
62712;BME280;48772;55.586;37.730;2023-12-20T03:27:08;97552.00;;;3.38;100.00
62712;BME280;48772;55.586;37.730;2023-12-20T03:29:34;97541.34;;;3.40;100.00
62712;BME280;48772;55.586;37.730;2023-12-20T03:31:59;97560.06;;;3.46;100.00
62712;BME280;48772;55.586;37.730;2023-12-20T03:34:26;97567.00;;;3.47;100.00
62712;BME280;48772;55.586;37.730;2023-12-20T03:36:52;97560.34;;;3.43;100.00
62712;BME280;48772;55.586;37.730;2023-12-20T03:39:18;97568.41;;;3.51;100.00
62712;BME280;48772;55.586;37.730;2023-12-20T03:41:43;97540.38;;;3.41;100.00
62712;BME280;48772;55.586;37.730;2023-12-20T03:44:09;97544.78;;;3.40;100.00
62712;BME280;48772;55.586;37.730;2023-12-20T03:46:35;97550.13;;;3.50;100.00
62712;BME280;48772;55.586;37.730;2023-12-20T03:49:01;97575.94;;;3.56;100.00
62712;BME280;48772;55.586;37.730;2023-12-20T03:51:27;97532.84;;;3.36;100.00
62712;BME280;48772;55.586;37.730;2023-12-20T03:53:52;97558.28;;;3.47;100.00
62712;BME280;48772;55.586;37.730;2023-12-20T03:56:18;97567.59;;;3.51;100.00
62712;BME280;48772;55.586;37.730;2023-12-20T03:58:44;97573.75;;;3.61;100.00
62712;BME280;48772;55.586;37.730;2023-12-20T04:01:10;97537.03;;;3.39;100.00
62712;BME280;48772;55.586;37.730;2023-12-20T04:03:38;97569.31;;;3.62;100.00
62712;BME280;48772;55.586;37.730;2023-12-20T04:06:06;97548.97;;;3.43;100.00
62712;BME280;48772;55.586;37.730;2023-12-20T04:08:31;97572.19;;;3.58;100.00
62712;BME280;48772;55.586;37.730;2023-12-20T04:10:57;97547.88;;;3.45;100.00
62712;BME280;48772;55.586;37.730;2023-12-20T04:13:23;97570.41;;;3.59;100.00
62712;BME280;48772;55.586;37.730;2023-12-20T04:15:49;97584.88;;;3.65;100.00
62712;BME280;48772;55.586;37.730;2023-12-20T04:18:16;97570.38;;;3.49;100.00
62712;BME280;48772;55.586;37.730;2023-12-20T04:20:42;97582.34;;;3.63;100.00
62712;BME280;48772;55.586;37.730;2023-12-20T04:23:08;97575.56;;;3.61;100.00
62712;BME280;48772;55.586;37.730;2023-12-20T04:25:34;97559.56;;;3.53;100.00
62712;BME280;48772;55.586;37.730;2023-12-20T04:28:00;97566.50;;;3.53;100.00
62712;BME280;48772;55.586;37.730;2023-12-20T04:30:25;97558.28;;;3.47;100.00
62712;BME280;48772;55.586;37.730;2023-12-20T04:32:51;97586.22;;;3.59;100.00
62712;BME280;48772;55.586;37.730;2023-12-20T04:35:17;97584.69;;;3.57;100.00
62712;BME280;48772;55.586;37.730;2023-12-20T04:37:43;97575.63;;;3.49;100.00
62712;BME280;48772;55.586;37.730;2023-12-20T04:40:09;97600.66;;;3.65;100.00
62712;BME280;48772;55.586;37.730;2023-12-20T04:42:35;97597.06;;;3.66;100.00
62712;BME280;48772;55.586;37.730;2023-12-20T04:45:01;97588.22;;;3.67;100.00
62712;BME280;48772;55.586;37.730;2023-12-20T04:47:29;97597.78;;;3.68;100.00
62712;BME280;48772;55.586;37.730;2023-12-20T04:49:55;97595.66;;;3.62;100.00
62712;BME280;48772;55.586;37.730;2023-12-20T04:52:22;97565.34;;;3.46;100.00
62712;BME280;48772;55.586;37.730;2023-12-20T04:54:48;97572.63;;;3.54;100.00
62712;BME280;48772;55.586;37.730;2023-12-20T04:57:14;97570.09;;;3.53;100.00
62712;BME280;48772;55.586;37.730;2023-12-20T04:59:39;97576.78;;;3.57;100.00
62712;BME280;48772;55.586;37.730;2023-12-20T05:02:06;97571.50;;;3.57;100.00
62712;BME280;48772;55.586;37.730;2023-12-20T05:04:32;97597.06;;;3.66;100.00
62712;BME280;48772;55.586;37.730;2023-12-20T05:06:58;97561.75;;;3.47;100.00
62712;BME280;48772;55.586;37.730;2023-12-20T05:09:24;97586.84;;;3.51;100.00
62712;BME280;48772;55.586;37.730;2023-12-20T05:11:49;97594.59;;;3.74;100.00
62712;BME280;48772;55.586;37.730;2023-12-20T05:14:15;97618.78;;;3.79;100.00
62712;BME280;48772;55.586;37.730;2023-12-20T05:16:42;97596.16;;;3.76;100.00
62712;BME280;48772;55.586;37.730;2023-12-20T05:19:08;97590.38;;;3.62;100.00
62712;BME280;48772;55.586;37.730;2023-12-20T05:21:34;97603.50;;;3.73;100.00
62712;BME280;48772;55.586;37.730;2023-12-20T05:24:00;97608.75;;;3.73;100.00
62712;BME280;48772;55.586;37.730;2023-12-20T05:26:26;97597.53;;;3.71;100.00
62712;BME280;48772;55.586;37.730;2023-12-20T05:28:52;97596.38;;;3.64;100.00
62712;BME280;48772;55.586;37.730;2023-12-20T05:31:18;97557.28;;;3.38;100.00
62712;BME280;48772;55.586;37.730;2023-12-20T05:33:44;97614.41;;;3.68;100.00
62712;BME280;48772;55.586;37.730;2023-12-20T05:36:09;97581.16;;;3.46;100.00
62712;BME280;48772;55.586;37.730;2023-12-20T05:38:37;97615.84;;;3.72;100.00
62712;BME280;48772;55.586;37.730;2023-12-20T05:41:03;97618.88;;;3.68;100.00
62712;BME280;48772;55.586;37.730;2023-12-20T05:43:29;97630.81;;;3.72;100.00
62712;BME280;48772;55.586;37.730;2023-12-20T05:45:55;97625.53;;;3.72;100.00
62712;BME280;48772;55.586;37.730;2023-12-20T05:48:21;97601.59;;;3.54;100.00
62712;BME280;48772;55.586;37.730;2023-12-20T05:50:46;97606.44;;;3.58;100.00
62712;BME280;48772;55.586;37.730;2023-12-20T05:53:12;97606.72;;;3.56;100.00
62712;BME280;48772;55.586;37.730;2023-12-20T05:55:38;97599.78;;;3.54;100.00
62712;BME280;48772;55.586;37.730;2023-12-20T05:58:07;97614.34;;;3.58;100.00
62712;BME280;48772;55.586;37.730;2023-12-20T06:00:32;97622.00;;;3.62;100.00
62712;BME280;48772;55.586;37.730;2023-12-20T06:02:58;97608.66;;;3.53;100.00
62712;BME280;48772;55.586;37.730;2023-12-20T06:05:25;97574.72;;;3.39;100.00
62712;BME280;48772;55.586;37.730;2023-12-20T06:07:54;97617.59;;;3.62;100.00
62712;BME280;48772;55.586;37.730;2023-12-20T06:10:22;97619.31;;;3.52;100.00
62712;BME280;48772;55.586;37.730;2023-12-20T06:12:48;97622.25;;;3.58;100.00
62712;BME280;48772;55.586;37.730;2023-12-20T06:15:15;97633.25;;;3.64;100.00
62712;BME280;48772;55.586;37.730;2023-12-20T06:17:41;97626.19;;;3.64;100.00
62712;BME280;48772;55.586;37.730;2023-12-20T06:20:08;97617.28;;;3.56;100.00
62712;BME280;48772;55.586;37.730;2023-12-20T06:22:35;97621.56;;;3.57;100.00
62712;BME280;48772;55.586;37.730;2023-12-20T06:25:02;97637.69;;;3.63;100.00
62712;BME280;48772;55.586;37.730;2023-12-20T06:27:30;97630.69;;;3.53;100.00
62712;BME280;48772;55.586;37.730;2023-12-20T06:29:58;97642.84;;;3.65;100.00
62712;BME280;48772;55.586;37.730;2023-12-20T06:32:27;97631.56;;;3.63;100.00
62712;BME280;48772;55.586;37.730;2023-12-20T06:34:54;97633.94;;;3.66;100.00
62712;BME280;48772;55.586;37.730;2023-12-20T06:37:20;97639.28;;;3.75;100.00
62712;BME280;48772;55.586;37.730;2023-12-20T06:39:49;97607.69;;;3.54;100.00
62712;BME280;48772;55.586;37.730;2023-12-20T06:42:15;97615.38;;;3.67;100.00
62712;BME280;48772;55.586;37.730;2023-12-20T06:44:41;97615.13;;;3.70;100.00
62712;BME280;48772;55.586;37.730;2023-12-20T06:47:07;97607.72;;;3.64;100.00
62712;BME280;48772;55.586;37.730;2023-12-20T06:49:33;97622.66;;;3.75;100.00
62712;BME280;48772;55.586;37.730;2023-12-20T06:51:58;97615.97;;;3.71;100.00
62712;BME280;48772;55.586;37.730;2023-12-20T06:54:24;97622.94;;;3.81;100.00
62712;BME280;48772;55.586;37.730;2023-12-20T06:56:50;97625.22;;;3.86;100.00
62712;BME280;48772;55.586;37.730;2023-12-20T06:59:16;97620.50;;;3.89;100.00
62712;BME280;48772;55.586;37.730;2023-12-20T07:01:42;97619.94;;;3.86;100.00
62712;BME280;48772;55.586;37.730;2023-12-20T07:04:08;97598.34;;;3.71;100.00
62712;BME280;48772;55.586;37.730;2023-12-20T07:06:34;97584.78;;;3.76;100.00
62712;BME280;48772;55.586;37.730;2023-12-20T07:09:00;97617.22;;;3.97;100.00
62712;BME280;48772;55.586;37.730;2023-12-20T07:11:26;97634.06;;;4.05;100.00
62712;BME280;48772;55.586;37.730;2023-12-20T07:13:52;97616.50;;;3.95;100.00
62712;BME280;48772;55.586;37.730;2023-12-20T07:16:18;97630.56;;;4.05;100.00
62712;BME280;48772;55.586;37.730;2023-12-20T07:18:44;97629.34;;;4.09;100.00
62712;BME280;48772;55.586;37.730;2023-12-20T07:21:10;97620.28;;;4.02;100.00
62712;BME280;48772;55.586;37.730;2023-12-20T07:23:35;97627.84;;;4.16;100.00
62712;BME280;48772;55.586;37.730;2023-12-20T07:26:01;97630.47;;;4.16;100.00
62712;BME280;48772;55.586;37.730;2023-12-20T07:28:27;97634.22;;;4.13;100.00
62712;BME280;48772;55.586;37.730;2023-12-20T07:30:53;97629.06;;;4.12;100.00
62712;BME280;48772;55.586;37.730;2023-12-20T07:33:19;97637.97;;;4.11;100.00
62712;BME280;48772;55.586;37.730;2023-12-20T07:35:45;97631.72;;;4.12;100.00
62712;BME280;48772;55.586;37.730;2023-12-20T07:38:11;97653.66;;;4.12;100.00
62712;BME280;48772;55.586;37.730;2023-12-20T07:40:37;97649.19;;;4.13;100.00
62712;BME280;48772;55.586;37.730;2023-12-20T07:43:04;97628.56;;;3.97;100.00
62712;BME280;48772;55.586;37.730;2023-12-20T07:45:30;97644.72;;;4.04;100.00
62712;BME280;48772;55.586;37.730;2023-12-20T07:47:56;97672.53;;;4.17;100.00
62712;BME280;48772;55.586;37.730;2023-12-20T07:50:21;97646.69;;;4.11;100.00
62712;BME280;48772;55.586;37.730;2023-12-20T07:52:47;97629.72;;;4.04;100.00
62712;BME280;48772;55.586;37.730;2023-12-20T07:55:13;97627.22;;;4.03;100.00
62712;BME280;48772;55.586;37.730;2023-12-20T07:57:39;97642.50;;;4.09;100.00
62712;BME280;48772;55.586;37.730;2023-12-20T08:00:05;97656.13;;;4.14;100.00
62712;BME280;48772;55.586;37.730;2023-12-20T08:02:31;97665.59;;;4.16;100.00
62712;BME280;48772;55.586;37.730;2023-12-20T08:04:57;97663.34;;;4.12;100.00
62712;BME280;48772;55.586;37.730;2023-12-20T08:07:23;97653.50;;;4.14;100.00
62712;BME280;48772;55.586;37.730;2023-12-20T08:09:49;97633.84;;;3.97;100.00
62712;BME280;48772;55.586;37.730;2023-12-20T08:12:16;97630.81;;;4.02;100.00
62712;BME280;48772;55.586;37.730;2023-12-20T08:14:42;97668.38;;;4.15;100.00
62712;BME280;48772;55.586;37.730;2023-12-20T08:17:08;97654.44;;;4.03;100.00
62712;BME280;48772;55.586;37.730;2023-12-20T08:19:34;97637.91;;;4.01;100.00
62712;BME280;48772;55.586;37.730;2023-12-20T08:22:00;97644.84;;;4.02;100.00
62712;BME280;48772;55.586;37.730;2023-12-20T08:24:26;97651.66;;;4.05;100.00
62712;BME280;48772;55.586;37.730;2023-12-20T08:26:51;97627.75;;;3.97;100.00
62712;BME280;48772;55.586;37.730;2023-12-20T08:29:18;97646.69;;;4.11;100.00
62712;BME280;48772;55.586;37.730;2023-12-20T08:31:44;97648.81;;;4.17;100.00
62712;BME280;48772;55.586;37.730;2023-12-20T08:34:10;97607.91;;;3.93;100.00
62712;BME280;48772;55.586;37.730;2023-12-20T08:36:38;97650.03;;;4.13;100.00
62712;BME280;48772;55.586;37.730;2023-12-20T08:39:04;97623.88;;;4.01;100.00
62712;BME280;48772;55.586;37.730;2023-12-20T08:41:33;97617.91;;;3.99;100.00
62712;BME280;48772;55.586;37.730;2023-12-20T08:43:58;97630.00;;;4.01;100.00
62712;BME280;48772;55.586;37.730;2023-12-20T08:46:24;97645.88;;;4.11;100.00
62712;BME280;48772;55.586;37.730;2023-12-20T08:48:51;97646.94;;;4.08;100.00
62712;BME280;48772;55.586;37.730;2023-12-20T08:51:17;97624.75;;;4.01;100.00
62712;BME280;48772;55.586;37.730;2023-12-20T08:53:44;97647.78;;;4.09;100.00
62712;BME280;48772;55.586;37.730;2023-12-20T08:56:10;97624.81;;;3.90;100.00
62712;BME280;48772;55.586;37.730;2023-12-20T08:58:36;97646.13;;;4.08;100.00
62712;BME280;48772;55.586;37.730;2023-12-20T09:01:02;97597.13;;;3.75;100.00
62712;BME280;48772;55.586;37.730;2023-12-20T09:03:28;97649.75;;;4.07;100.00
62712;BME280;48772;55.586;37.730;2023-12-20T09:05:54;97610.78;;;3.90;100.00
62712;BME280;48772;55.586;37.730;2023-12-20T09:08:20;97638.06;;;4.00;100.00
62712;BME280;48772;55.586;37.730;2023-12-20T09:10:46;97625.00;;;3.98;100.00
62712;BME280;48772;55.586;37.730;2023-12-20T09:13:11;97625.28;;;4.05;100.00
62712;BME280;48772;55.586;37.730;2023-12-20T09:15:37;97646.16;;;4.17;100.00
62712;BME280;48772;55.586;37.730;2023-12-20T09:18:03;97613.59;;;3.98;100.00
62712;BME280;48772;55.586;37.730;2023-12-20T09:20:29;97651.28;;;4.09;100.00
62712;BME280;48772;55.586;37.730;2023-12-20T09:22:55;97648.94;;;4.16;100.00
62712;BME280;48772;55.586;37.730;2023-12-20T09:25:21;97620.66;;;3.97;100.00
62712;BME280;48772;55.586;37.730;2023-12-20T09:27:49;97637.25;;;4.09;100.00
62712;BME280;48772;55.586;37.730;2023-12-20T09:30:15;97628.44;;;3.99;100.00
62712;BME280;48772;55.586;37.730;2023-12-20T09:32:41;97648.38;;;4.12;100.00
62712;BME280;48772;55.586;37.730;2023-12-20T09:35:07;97648.09;;;4.15;100.00
62712;BME280;48772;55.586;37.730;2023-12-20T09:37:34;97646.03;;;4.19;100.00
62712;BME280;48772;55.586;37.730;2023-12-20T09:40:00;97649.78;;;4.16;100.00
62712;BME280;48772;55.586;37.730;2023-12-20T09:45:02;97634.63;;;4.18;100.00
62712;BME280;48772;55.586;37.730;2023-12-20T09:47:32;97649.22;;;4.22;100.00
62712;BME280;48772;55.586;37.730;2023-12-20T09:49:58;97611.31;;;4.14;100.00
62712;BME280;48772;55.586;37.730;2023-12-20T09:52:24;97634.94;;;4.25;100.00
62712;BME280;48772;55.586;37.730;2023-12-20T09:54:52;97638.41;;;4.25;100.00
62712;BME280;48772;55.586;37.730;2023-12-20T09:57:19;97624.97;;;4.28;100.00
62712;BME280;48772;55.586;37.730;2023-12-20T09:59:44;97619.22;;;4.14;100.00
62712;BME280;48772;55.586;37.730;2023-12-20T10:02:13;97605.47;;;4.10;100.00
62712;BME280;48772;55.586;37.730;2023-12-20T10:04:46;97637.56;;;4.25;100.00
62712;BME280;48772;55.586;37.730;2023-12-20T10:07:16;97642.03;;;4.24;100.00
62712;BME280;48772;55.586;37.730;2023-12-20T10:09:42;97632.16;;;4.26;100.00
62712;BME280;48772;55.586;37.730;2023-12-20T10:12:08;97637.78;;;4.33;100.00
62712;BME280;48772;55.586;37.730;2023-12-20T10:14:34;97655.38;;;4.32;100.00
62712;BME280;48772;55.586;37.730;2023-12-20T10:17:04;97622.69;;;4.14;100.00
62712;BME280;48772;55.586;37.730;2023-12-20T10:19:30;97647.34;;;4.34;100.00
62712;BME280;48772;55.586;37.730;2023-12-20T10:21:58;97620.22;;;4.22;100.00
62712;BME280;48772;55.586;37.730;2023-12-20T10:24:25;97644.28;;;4.29;100.00
62712;BME280;48772;55.586;37.730;2023-12-20T10:27:04;97656.72;;;4.17;100.00
62712;BME280;48772;55.586;37.730;2023-12-20T10:29:39;97637.06;;;4.31;100.00
62712;BME280;48772;55.586;37.730;2023-12-20T10:32:31;97648.19;;;4.34;100.00
62712;BME280;48772;55.586;37.730;2023-12-20T10:34:58;97630.63;;;4.24;100.00
62712;BME280;48772;55.586;37.730;2023-12-20T10:37:25;97648.72;;;4.28;100.00
62712;BME280;48772;55.586;37.730;2023-12-20T10:39:53;97635.38;;;4.30;100.00
62712;BME280;48772;55.586;37.730;2023-12-20T10:42:22;97641.78;;;4.27;100.00
62712;BME280;48772;55.586;37.730;2023-12-20T10:44:51;97631.09;;;4.29;100.00
62712;BME280;48772;55.586;37.730;2023-12-20T10:47:24;97644.75;;;4.13;100.00
62712;BME280;48772;55.586;37.730;2023-12-20T10:49:52;97623.22;;;4.08;100.00
62712;BME280;48772;55.586;37.730;2023-12-20T10:52:18;97623.63;;;4.04;100.00
62712;BME280;48772;55.586;37.730;2023-12-20T10:54:44;97640.31;;;4.14;100.00
62712;BME280;48772;55.586;37.730;2023-12-20T10:57:11;97602.38;;;3.96;100.00
62712;BME280;48772;55.586;37.730;2023-12-20T10:59:41;97617.78;;;4.00;100.00
62712;BME280;48772;55.586;37.730;2023-12-20T11:02:08;97636.56;;;4.07;100.00
62712;BME280;48772;55.586;37.730;2023-12-20T11:04:40;97667.81;;;4.21;100.00
62712;BME280;48772;55.586;37.730;2023-12-20T11:07:16;97658.97;;;4.22;100.00
62712;BME280;48772;55.586;37.730;2023-12-20T11:10:00;97653.69;;;4.22;100.00
62712;BME280;48772;55.586;37.730;2023-12-20T11:12:47;97644.50;;;4.16;100.00
62712;BME280;48772;55.586;37.730;2023-12-20T11:15:14;97664.25;;;4.22;100.00
62712;BME280;48772;55.586;37.730;2023-12-20T11:17:40;97654.47;;;4.13;100.00
62712;BME280;48772;55.586;37.730;2023-12-20T11:20:10;97665.47;;;4.18;100.00
62712;BME280;48772;55.586;37.730;2023-12-20T11:22:37;97638.78;;;4.11;100.00
62712;BME280;48772;55.586;37.730;2023-12-20T11:25:05;97634.69;;;3.98;100.00
62712;BME280;48772;55.586;37.730;2023-12-20T11:27:34;97647.78;;;4.09;100.00
62712;BME280;48772;55.586;37.730;2023-12-20T11:30:03;97658.09;;;4.12;100.00
62712;BME280;48772;55.586;37.730;2023-12-20T11:32:34;97660.84;;;4.10;100.00
62712;BME280;48772;55.586;37.730;2023-12-20T11:37:38;97662.22;;;4.05;100.00
62712;BME280;48772;55.586;37.730;2023-12-20T11:40:15;97662.50;;;4.11;100.00
62712;BME280;48772;55.586;37.730;2023-12-20T11:42:49;97631.88;;;3.90;100.00
62712;BME280;48772;55.586;37.730;2023-12-20T11:45:18;97663.22;;;4.13;100.00
62712;BME280;48772;55.586;37.730;2023-12-20T11:47:46;97672.78;;;4.14;100.00
62712;BME280;48772;55.586;37.730;2023-12-20T11:50:12;97626.34;;;3.93;100.00
62712;BME280;48772;55.586;37.730;2023-12-20T11:52:39;97663.47;;;4.10;100.00
62712;BME280;48772;55.586;37.730;2023-12-20T11:55:05;97674.59;;;4.14;100.00
62712;BME280;48772;55.586;37.730;2023-12-20T11:57:32;97649.44;;;4.10;100.00
62712;BME280;48772;55.586;37.730;2023-12-20T11:59:58;97643.03;;;4.03;100.00
62712;BME280;48772;55.586;37.730;2023-12-20T12:02:24;97653.56;;;4.03;100.00
62712;BME280;48772;55.586;37.730;2023-12-20T12:04:51;97650.25;;;4.01;100.00
62712;BME280;48772;55.586;37.730;2023-12-20T12:07:17;97654.13;;;3.97;100.00
62712;BME280;48772;55.586;37.730;2023-12-20T12:09:45;97652.47;;;3.96;100.00
62712;BME280;48772;55.586;37.730;2023-12-20T12:12:12;97610.28;;;3.75;100.00
62712;BME280;48772;55.586;37.730;2023-12-20T12:14:39;97651.63;;;3.95;100.00
62712;BME280;48772;55.586;37.730;2023-12-20T12:17:12;97673.25;;;3.99;100.00
62712;BME280;48772;55.586;37.730;2023-12-20T12:19:43;97662.53;;;3.91;100.00
62712;BME280;48772;55.586;37.730;2023-12-20T12:22:10;97670.44;;;3.91;100.00
62712;BME280;48772;55.586;37.730;2023-12-20T12:24:39;97681.47;;;3.96;100.00
62712;BME280;48772;55.586;37.730;2023-12-20T12:27:06;97667.25;;;3.87;100.00
62712;BME280;48772;55.586;37.730;2023-12-20T12:29:36;97660.88;;;3.90;100.00
62712;BME280;48772;55.586;37.730;2023-12-20T12:32:09;97678.09;;;3.94;100.00
62712;BME280;48772;55.586;37.730;2023-12-20T12:34:35;97666.78;;;3.82;100.00
62712;BME280;48772;55.586;37.730;2023-12-20T12:37:03;97668.34;;;3.85;100.00
62712;BME280;48772;55.586;37.730;2023-12-20T12:39:29;97674.81;;;3.81;100.00
62712;BME280;48772;55.586;37.730;2023-12-20T12:41:56;97686.28;;;3.70;100.00
62712;BME280;48772;55.586;37.730;2023-12-20T12:44:23;97695.66;;;3.84;100.00
62712;BME280;48772;55.586;37.730;2023-12-20T12:46:52;97704.28;;;3.86;100.00
62712;BME280;48772;55.586;37.730;2023-12-20T12:49:20;97687.06;;;3.82;100.00
62712;BME280;48772;55.586;37.730;2023-12-20T12:51:49;97687.44;;;3.77;100.00